Terminal Aerodrome Forecast
Issued by NWS

Home | Current Version | Previous Version | Text Only | Print | Product List | Glossary On
Versions: 1 2 3 4 5 6 7 8 9 10 11 12
000
FTUS46 KPDT 181120
TAFRDM
TAF
KRDM 181120Z 1812/1912 16005KT P6SM SKC
     FM182100 33012G20KT P6SM FEW250
     FM190400 31007KT P6SM SCT250
     FM190900 18005KT P6SM FEW200=

USA.gov is the U.S. government's official web portal to all federal, state and local government web resources and services.